createdAt,value
2023-04-05T00:00:09.991Z,5.35
2023-04-05T00:01:58.179Z,5.35
2023-04-05T00:03:43.586Z,5.32
2023-04-05T00:05:29.432Z,5.34
2023-04-05T00:07:16.250Z,5.25
2023-04-05T00:09:04.058Z,5.29
2023-04-05T00:10:45.343Z,5.22
2023-04-05T00:12:32.205Z,5.22
2023-04-05T00:14:18.574Z,5.24
2023-04-05T00:15:58.433Z,5.28
2023-04-05T00:17:45.287Z,5.27
2023-04-05T00:19:34.040Z,5.28
2023-04-05T00:21:14.753Z,5.26
2023-04-05T00:23:01.248Z,5.18
2023-04-05T00:24:47.509Z,5.17
2023-04-05T00:26:28.353Z,5.30
2023-04-05T00:28:15.246Z,5.34
2023-04-05T00:30:01.548Z,5.29
2023-04-05T00:31:41.006Z,5.24
2023-04-05T00:33:27.341Z,5.23
2023-04-05T00:35:14.514Z,5.28
2023-04-05T00:36:54.008Z,5.30
2023-04-05T00:38:41.255Z,5.32
2023-04-05T00:40:28.008Z,5.38
2023-04-05T00:42:09.621Z,5.35
2023-04-05T00:43:54.293Z,5.35
2023-04-05T00:45:41.804Z,5.30
2023-04-05T00:47:21.380Z,5.27
2023-04-05T00:49:08.236Z,5.28
2023-04-05T00:50:57.558Z,5.37
2023-04-05T00:52:38.224Z,5.42
2023-04-05T00:54:26.310Z,5.46
2023-04-05T00:56:13.981Z,5.51
2023-04-05T00:57:56.969Z,5.32
2023-04-05T00:59:43.276Z,5.40
2023-04-05T01:01:28.141Z,5.43
2023-04-05T01:03:17.003Z,5.35
2023-04-05T01:05:08.242Z,5.28
2023-04-05T01:07:09.707Z,5.14
2023-04-05T01:09:09.262Z,5.12
2023-04-05T01:11:09.305Z,5.12
2023-04-05T01:12:50.161Z,5.13
2023-04-05T01:14:45.343Z,5.15
2023-04-05T01:16:32.065Z,5.19
2023-04-05T01:18:25.315Z,5.20
2023-04-05T01:20:17.339Z,5.24
2023-04-05T01:22:32.179Z,5.26
2023-04-05T01:24:40.393Z,5.28
2023-04-05T01:27:09.339Z,5.28
2023-04-05T01:29:28.319Z,5.30
2023-04-05T01:31:57.410Z,5.19
2023-04-05T01:34:06.229Z,5.09
2023-04-05T01:36:03.308Z,5.16
2023-04-05T01:37:52.556Z,5.20
2023-04-05T01:39:46.338Z,5.20
2023-04-05T01:41:32.444Z,5.15
2023-04-05T01:43:16.086Z,5.17
2023-04-05T01:45:05.299Z,5.18
2023-04-05T01:47:13.246Z,5.13
2023-04-05T01:49:00.114Z,5.19
2023-04-05T01:50:54.275Z,5.18
2023-04-05T01:52:54.341Z,5.12
2023-04-05T01:54:41.410Z,5.08
2023-04-05T01:56:34.276Z,5.07
2023-04-05T01:58:21.009Z,4.86
2023-04-05T02:00:15.487Z,4.87
2023-04-05T02:02:02.295Z,4.84
2023-04-05T02:03:48.646Z,4.87
2023-04-05T02:05:41.481Z,4.93
2023-04-05T02:07:24.433Z,4.87
2023-04-05T02:09:11.022Z,4.80
2023-04-05T02:11:00.523Z,4.92
2023-04-05T02:12:46.700Z,4.86
2023-04-05T02:14:26.248Z,4.84
2023-04-05T02:16:14.467Z,4.94
2023-04-05T02:18:02.247Z,4.96
2023-04-05T02:19:42.173Z,4.92
2023-04-05T02:21:28.516Z,4.89
2023-04-05T02:23:16.518Z,4.97
2023-04-05T02:24:57.017Z,4.94
2023-04-05T02:26:42.445Z,4.94
2023-04-05T02:28:30.737Z,4.96
2023-04-05T02:30:10.641Z,4.98
2023-04-05T02:32:05.330Z,5.02
2023-04-05T02:34:07.336Z,5.02
2023-04-05T02:35:54.666Z,5.00
2023-04-05T02:37:48.425Z,5.10
2023-04-05T02:39:48.317Z,5.15
2023-04-05T02:41:41.310Z,5.13
2023-04-05T02:43:34.392Z,5.11
2023-04-05T02:45:27.977Z,5.13
2023-04-05T02:47:14.359Z,5.06
2023-04-05T02:49:00.550Z,5.16
2023-04-05T02:50:48.510Z,4.99
2023-04-05T02:52:44.319Z,5.11
2023-04-05T02:54:23.577Z,5.15
2023-04-05T02:56:21.389Z,5.18
2023-04-05T02:58:08.625Z,5.22
2023-04-05T03:00:05.484Z,5.18
2023-04-05T03:01:53.366Z,5.29
2023-04-05T03:03:42.515Z,5.27
2023-04-05T03:05:36.543Z,5.26
2023-04-05T03:07:25.421Z,5.26
2023-04-05T03:09:14.472Z,5.27
2023-04-05T03:11:06.311Z,5.29
2023-04-05T03:12:58.412Z,5.31
2023-04-05T03:14:39.723Z,5.29
2023-04-05T03:16:35.671Z,5.32
2023-04-05T03:18:31.698Z,5.33
2023-04-05T03:20:29.367Z,5.29
2023-04-05T03:22:23.411Z,5.29
2023-04-05T03:24:10.280Z,5.31
2023-04-05T03:26:04.379Z,5.29
2023-04-05T03:28:02.452Z,5.28
2023-04-05T03:29:44.587Z,5.30
2023-04-05T03:31:31.227Z,5.30
2023-04-05T03:33:27.529Z,5.31
2023-04-05T03:35:19.319Z,5.36
2023-04-05T03:37:14.431Z,5.40
2023-04-05T03:39:11.707Z,5.41
2023-04-05T03:40:57.629Z,5.37
2023-04-05T03:42:43.396Z,5.41
2023-04-05T03:44:30.354Z,5.45
2023-04-05T03:46:24.486Z,5.45
2023-04-05T03:48:10.417Z,5.50
2023-04-05T03:49:56.787Z,5.50
2023-04-05T03:51:44.216Z,5.54
2023-04-05T03:53:33.368Z,5.54
2023-04-05T03:55:20.677Z,5.50
2023-04-05T03:57:14.402Z,5.43
2023-04-05T03:59:02.476Z,5.49
2023-04-05T04:00:49.172Z,5.51
2023-04-05T04:02:43.400Z,5.54
2023-04-05T04:04:40.438Z,5.56
2023-04-05T04:06:20.781Z,5.62
2023-04-05T04:08:14.374Z,5.62
2023-04-05T04:10:09.446Z,5.64
2023-04-05T04:11:58.292Z,5.69
2023-04-05T04:13:53.387Z,5.66
2023-04-05T04:15:55.478Z,5.72
2023-04-05T04:17:51.794Z,5.72
2023-04-05T04:20:21.421Z,5.79
2023-04-05T04:22:21.558Z,5.81
2023-04-05T04:24:34.463Z,5.82
2023-04-05T04:26:48.576Z,5.86
2023-04-05T04:29:04.459Z,5.92
2023-04-05T04:31:09.378Z,5.97
2023-04-05T04:33:17.450Z,5.96
2023-04-05T04:35:47.439Z,5.93
2023-04-05T04:37:47.719Z,6.01
2023-04-05T04:40:01.398Z,6.03
2023-04-05T04:41:57.437Z,6.05
2023-04-05T04:44:05.520Z,6.09
2023-04-05T04:46:15.984Z,6.04
2023-04-05T04:48:16.489Z,6.04
2023-04-05T04:50:33.674Z,6.00
2023-04-05T04:52:19.627Z,5.98
2023-04-05T04:54:05.433Z,5.92
2023-04-05T04:55:51.851Z,5.87
2023-04-05T04:57:46.527Z,5.86
2023-04-05T04:59:33.692Z,5.91
2023-04-05T05:01:22.809Z,5.90
2023-04-05T05:03:17.447Z,6.03
2023-04-05T05:05:11.469Z,6.10
2023-04-05T05:06:51.248Z,6.15
2023-04-05T05:08:45.383Z,6.19
2023-04-05T05:10:38.656Z,6.27
2023-04-05T05:12:18.360Z,6.34
2023-04-05T05:14:13.450Z,6.38
2023-04-05T05:16:07.477Z,6.39
2023-04-05T05:17:54.047Z,6.47
2023-04-05T05:19:46.486Z,6.51
2023-04-05T05:21:32.665Z,6.57
2023-04-05T05:23:27.526Z,6.63
2023-04-05T05:25:14.472Z,6.66
2023-04-05T05:27:01.117Z,6.74
2023-04-05T05:28:48.941Z,6.79
2023-04-05T05:30:42.963Z,6.85
2023-04-05T05:32:43.535Z,6.96
2023-04-05T05:34:43.669Z,6.95
2023-04-05T05:36:37.528Z,7.05
2023-04-05T05:38:23.659Z,7.08
2023-04-05T05:40:19.551Z,7.19
2023-04-05T05:42:05.723Z,7.30
2023-04-05T05:43:45.288Z,7.36
2023-04-05T05:45:31.663Z,7.44
2023-04-05T05:47:19.653Z,7.53
2023-04-05T05:48:59.205Z,7.61
2023-04-05T05:50:45.495Z,7.53
2023-04-05T05:52:31.697Z,7.66
2023-04-05T05:54:11.205Z,7.80
2023-04-05T05:55:56.647Z,7.95
2023-04-05T05:57:42.696Z,8.10
2023-04-05T05:59:22.311Z,8.22
2023-04-05T06:01:10.646Z,8.32
2023-04-05T06:02:59.375Z,8.35
2023-04-05T06:04:39.250Z,8.34
2023-04-05T06:06:25.685Z,8.36
2023-04-05T06:08:05.708Z,8.36
2023-04-05T06:09:52.258Z,8.48
2023-04-05T06:11:46.338Z,8.59
2023-04-05T06:13:39.699Z,8.84
2023-04-05T06:15:19.261Z,9.11
2023-04-05T06:17:05.542Z,9.29
2023-04-05T06:18:55.590Z,9.12
2023-04-05T06:20:35.775Z,9.17
2023-04-05T06:22:21.671Z,9.26
2023-04-05T06:24:07.703Z,9.36
2023-04-05T06:25:47.290Z,9.34
2023-04-05T06:27:33.545Z,9.18
2023-04-05T06:29:19.753Z,9.14
2023-04-05T06:31:00.032Z,9.05
2023-04-05T06:32:45.822Z,9.08
2023-04-05T06:34:47.453Z,8.91
2023-04-05T06:36:35.115Z,8.71
2023-04-05T06:38:27.800Z,8.50
2023-04-05T06:40:27.530Z,8.23
2023-04-05T06:42:28.136Z,8.34
2023-04-05T06:44:18.329Z,8.54
2023-04-05T06:46:08.837Z,8.59
2023-04-05T06:47:54.576Z,8.80
2023-04-05T06:49:35.755Z,8.91
2023-04-05T06:51:21.883Z,8.87
2023-04-05T06:53:07.514Z,8.82
2023-04-05T06:54:54.411Z,8.88
2023-04-05T06:56:40.676Z,8.93
2023-04-05T06:58:26.594Z,8.80
2023-04-05T07:00:11.205Z,8.61
2023-04-05T07:02:03.467Z,8.47
2023-04-05T07:03:49.559Z,8.58
2023-04-05T07:05:37.885Z,8.62
2023-04-05T07:07:31.507Z,8.59
2023-04-05T07:09:24.551Z,8.58
2023-04-05T07:11:24.786Z,8.69
2023-04-05T07:13:17.527Z,8.73
2023-04-05T07:15:10.517Z,8.77
2023-04-05T07:16:50.847Z,8.73
2023-04-05T07:18:43.547Z,8.73
2023-04-05T07:20:31.676Z,8.79
2023-04-05T07:22:24.728Z,8.75
2023-04-05T07:24:11.551Z,8.72
2023-04-05T07:25:57.758Z,8.63
2023-04-05T07:27:50.656Z,8.69
2023-04-05T07:29:37.560Z,8.65
2023-04-05T07:31:25.081Z,8.65
2023-04-05T07:33:17.711Z,8.70
2023-04-05T07:34:57.757Z,8.69
2023-04-05T07:36:46.878Z,8.70
2023-04-05T07:38:37.863Z,8.69
2023-04-05T07:40:37.535Z,8.54
2023-04-05T07:42:24.246Z,8.41
2023-04-05T07:44:16.672Z,8.43
2023-04-05T07:46:17.533Z,8.51
2023-04-05T07:48:10.638Z,8.60
2023-04-05T07:49:58.012Z,8.58
2023-04-05T07:51:52.543Z,8.42
2023-04-05T07:53:38.599Z,8.30
2023-04-05T07:55:25.680Z,8.38
2023-04-05T07:57:12.723Z,8.52
2023-04-05T07:59:01.574Z,8.64
2023-04-05T08:00:42.382Z,8.72
2023-04-05T08:02:35.667Z,8.89
2023-04-05T08:04:29.594Z,8.85
2023-04-05T08:06:18.545Z,8.90
2023-04-05T08:08:15.590Z,8.81
2023-04-05T08:10:08.606Z,8.85
2023-04-05T08:11:49.098Z,8.67
2023-04-05T08:13:41.610Z,8.57
2023-04-05T08:15:41.551Z,8.50
2023-04-05T08:17:41.858Z,8.64
2023-04-05T08:19:35.568Z,8.84
2023-04-05T08:21:21.794Z,9.04
2023-04-05T08:23:16.856Z,9.15
2023-04-05T08:25:03.717Z,9.26
2023-04-05T08:26:50.498Z,9.37
2023-04-05T08:28:43.884Z,9.19
2023-04-05T08:30:36.623Z,9.08
2023-04-05T08:32:16.077Z,9.07
2023-04-05T08:34:08.761Z,9.23
2023-04-05T08:36:01.699Z,9.37
2023-04-05T08:37:48.765Z,9.42
2023-04-05T08:39:44.027Z,9.46
2023-04-05T08:41:42.634Z,9.44
2023-04-05T08:43:35.931Z,9.58
2023-04-05T08:45:30.890Z,9.49
2023-04-05T08:47:18.820Z,9.59
2023-04-05T08:49:13.549Z,9.59
2023-04-05T08:51:05.938Z,9.49
2023-04-05T08:52:52.486Z,9.58
2023-04-05T08:54:40.877Z,9.64
2023-04-05T08:56:29.749Z,9.67
2023-04-05T08:58:14.721Z,9.49
2023-04-05T09:00:09.642Z,9.65
2023-04-05T09:02:01.700Z,9.85
2023-04-05T09:03:49.941Z,9.91
2023-04-05T09:05:45.639Z,10.01
2023-04-05T09:07:33.981Z,10.24
2023-04-05T09:09:15.487Z,10.00
2023-04-05T09:11:03.674Z,9.88
2023-04-05T09:12:44.098Z,9.72
2023-04-05T09:14:31.707Z,9.68
2023-04-05T09:16:18.687Z,9.57
2023-04-05T09:18:09.923Z,9.67
2023-04-05T09:20:05.669Z,9.69
2023-04-05T09:22:15.635Z,9.73
2023-04-05T09:23:56.204Z,9.82
2023-04-05T09:25:50.640Z,9.77
2023-04-05T09:27:31.788Z,9.71
2023-04-05T09:29:43.940Z,9.65
2023-04-05T09:31:40.698Z,9.72
2023-04-05T09:33:27.806Z,9.77
2023-04-05T09:35:26.912Z,9.77
2023-04-05T09:37:27.631Z,9.83
2023-04-05T09:39:29.612Z,9.67
2023-04-05T09:41:22.825Z,9.64
2023-04-05T09:43:17.701Z,9.58
2023-04-05T09:45:01.524Z,9.44
2023-04-05T09:47:00.662Z,9.41
2023-04-05T09:48:57.704Z,9.45
2023-04-05T09:50:43.862Z,9.29
2023-04-05T09:52:39.878Z,9.00
2023-04-05T09:54:34.708Z,9.13
2023-04-05T09:56:15.001Z,9.17
2023-04-05T09:58:07.953Z,9.30
2023-04-05T09:59:49.098Z,9.43
2023-04-05T10:01:42.697Z,9.29
2023-04-05T10:03:29.088Z,9.61
2023-04-05T10:05:16.024Z,9.85
2023-04-05T10:06:55.577Z,9.67
2023-04-05T10:08:41.791Z,9.73
2023-04-05T10:10:29.843Z,9.87
2023-04-05T10:12:11.716Z,9.89
2023-04-05T10:13:59.788Z,9.85
2023-04-05T10:15:49.949Z,9.97
2023-04-05T10:17:36.147Z,9.95
2023-04-05T10:19:33.804Z,9.91
2023-04-05T10:21:24.146Z,10.09
2023-04-05T10:23:16.668Z,10.22
2023-04-05T10:25:15.040Z,10.29
2023-04-05T10:27:05.725Z,10.07
2023-04-05T10:29:06.682Z,9.79
2023-04-05T10:30:53.227Z,9.73
2023-04-05T10:32:56.681Z,9.63
2023-04-05T10:34:56.786Z,9.47
2023-04-05T10:36:50.167Z,9.63
2023-04-05T10:38:37.754Z,9.90
2023-04-05T10:40:36.696Z,10.30
2023-04-05T10:42:22.180Z,10.57
2023-04-05T10:44:25.502Z,10.81
2023-04-05T10:46:21.582Z,10.86
2023-04-05T10:48:23.701Z,11.01
2023-04-05T10:50:20.796Z,11.08
2023-04-05T10:52:00.992Z,11.12
2023-04-05T10:53:55.090Z,11.26
2023-04-05T10:55:49.679Z,11.23
2023-04-05T10:57:38.843Z,11.10
2023-04-05T10:59:33.232Z,11.00
2023-04-05T11:01:34.700Z,10.71
2023-04-05T11:03:50.914Z,10.54
2023-04-05T11:05:42.057Z,10.70
2023-04-05T11:07:44.478Z,10.85
2023-04-05T11:09:33.746Z,10.76
2023-04-05T11:11:23.044Z,10.93
2023-04-05T11:13:11.654Z,10.94
2023-04-05T11:14:59.754Z,11.29
2023-04-05T11:16:47.937Z,11.30
2023-04-05T11:18:34.636Z,11.18
2023-04-05T11:20:20.788Z,11.22
2023-04-05T11:22:09.007Z,11.16
2023-04-05T11:24:03.814Z,11.07
2023-04-05T11:25:54.882Z,11.06
2023-04-05T11:27:42.194Z,11.11
2023-04-05T11:29:49.649Z,11.28
2023-04-05T11:31:35.731Z,11.40
2023-04-05T11:34:06.971Z,11.38
2023-04-05T11:36:09.821Z,11.05
2023-04-05T11:38:20.764Z,11.07
2023-04-05T11:40:35.955Z,11.17
2023-04-05T11:42:23.944Z,11.06
2023-04-05T11:44:16.701Z,10.54
2023-04-05T11:46:02.772Z,10.38
2023-04-05T11:47:45.034Z,10.29
2023-04-05T11:49:39.923Z,10.21
2023-04-05T11:51:38.872Z,10.05
2023-04-05T11:53:38.771Z,9.99
2023-04-05T11:55:28.022Z,10.04
2023-04-05T11:57:20.737Z,10.04
2023-04-05T11:59:13.962Z,9.99
2023-04-05T12:01:07.974Z,9.91
2023-04-05T12:02:53.812Z,9.70
2023-04-05T12:04:42.064Z,9.87
2023-04-05T12:06:34.959Z,10.07
2023-04-05T12:08:21.766Z,10.13
2023-04-05T12:10:12.050Z,10.25
2023-04-05T12:12:11.964Z,10.38
2023-04-05T12:14:00.181Z,10.57
2023-04-05T12:15:46.957Z,10.76
2023-04-05T12:17:46.289Z,10.76
2023-04-05T12:19:45.813Z,10.74
2023-04-05T12:21:40.795Z,10.70
2023-04-05T12:23:35.157Z,10.73
2023-04-05T12:25:14.856Z,10.51
2023-04-05T12:27:08.778Z,10.50
2023-04-05T12:28:59.034Z,10.42
2023-04-05T12:30:57.163Z,10.31
2023-04-05T12:32:58.857Z,10.35
2023-04-05T12:34:49.233Z,10.33
2023-04-05T12:36:42.789Z,10.35
2023-04-05T12:38:31.790Z,10.28
2023-04-05T12:40:25.932Z,10.26
2023-04-05T12:42:11.771Z,10.38
2023-04-05T12:44:01.669Z,10.43
2023-04-05T12:45:57.998Z,10.11
2023-04-05T12:47:50.901Z,9.99
2023-04-05T12:49:30.737Z,9.97
2023-04-05T12:51:23.570Z,9.90
2023-04-05T12:53:14.794Z,10.01
2023-04-05T12:55:03.180Z,9.86
2023-04-05T12:56:50.516Z,9.90
2023-04-05T12:58:42.864Z,9.91
2023-04-05T13:00:26.709Z,9.81
2023-04-05T13:02:14.081Z,9.92
2023-04-05T13:04:12.536Z,9.95
2023-04-05T13:06:15.811Z,9.89
2023-04-05T13:08:09.156Z,9.77
2023-04-05T13:10:01.859Z,9.84
2023-04-05T13:11:42.956Z,10.15
2023-04-05T13:13:35.932Z,10.02
2023-04-05T13:15:28.863Z,9.97
2023-04-05T13:17:15.064Z,9.97
2023-04-05T13:19:02.127Z,10.06
2023-04-05T13:20:48.030Z,10.18
2023-04-05T13:22:41.844Z,10.11
2023-04-05T13:24:28.206Z,10.21
2023-04-05T13:26:14.641Z,10.18
2023-04-05T13:28:02.872Z,10.13
2023-04-05T13:29:43.295Z,10.09
2023-04-05T13:31:29.954Z,10.23
2023-04-05T13:33:22.828Z,10.36
2023-04-05T13:35:10.497Z,10.45
2023-04-05T13:36:58.115Z,10.44
2023-04-05T13:38:43.841Z,10.49
2023-04-05T13:40:43.915Z,10.42
2023-04-05T13:42:31.145Z,10.51
2023-04-05T13:44:25.934Z,10.60
2023-04-05T13:46:12.815Z,10.41
2023-04-05T13:48:05.898Z,10.48
2023-04-05T13:49:51.887Z,10.49
2023-04-05T13:51:41.550Z,10.43
2023-04-05T13:53:33.853Z,10.36
2023-04-05T13:55:20.077Z,10.15
2023-04-05T13:57:06.851Z,10.15
2023-04-05T13:58:53.911Z,10.31
2023-04-05T14:00:35.068Z,10.35
2023-04-05T14:02:32.863Z,10.30
2023-04-05T14:04:25.913Z,10.32
2023-04-05T14:06:05.895Z,10.30
2023-04-05T14:07:52.410Z,10.25
2023-04-05T14:09:38.917Z,10.29
2023-04-05T14:11:18.596Z,10.35
2023-04-05T14:13:11.177Z,10.48
2023-04-05T14:15:03.929Z,10.42
2023-04-05T14:16:45.134Z,10.50
2023-04-05T14:18:31.968Z,10.58
2023-04-05T14:20:18.919Z,10.56
2023-04-05T14:21:59.107Z,10.54
2023-04-05T14:23:45.878Z,10.54
2023-04-05T14:25:32.923Z,10.53
2023-04-05T14:27:13.147Z,10.58
2023-04-05T14:29:00.031Z,10.52
2023-04-05T14:30:46.889Z,10.57
2023-04-05T14:32:28.198Z,10.35
2023-04-05T14:34:21.992Z,10.23
2023-04-05T14:36:14.904Z,10.20
2023-04-05T14:37:54.739Z,10.17
2023-04-05T14:39:48.005Z,10.28
2023-04-05T14:41:41.919Z,10.22
2023-04-05T14:43:28.135Z,10.15
2023-04-05T14:45:22.095Z,9.98
2023-04-05T14:47:14.926Z,9.88
2023-04-05T14:49:16.885Z,9.79
2023-04-05T14:51:11.220Z,9.62
2023-04-05T14:52:57.111Z,9.57
2023-04-05T14:54:49.873Z,9.46
2023-04-05T14:56:36.023Z,9.37
2023-04-05T14:58:22.755Z,9.18
2023-04-05T15:00:15.928Z,9.05
2023-04-05T15:01:56.182Z,8.91
2023-04-05T15:03:42.372Z,8.82
2023-04-05T15:05:29.904Z,8.82
2023-04-05T15:07:30.091Z,8.75
2023-04-05T15:09:16.853Z,8.77
2023-04-05T15:11:09.935Z,8.72
2023-04-05T15:13:04.274Z,8.54
2023-04-05T15:14:51.874Z,8.57
2023-04-05T15:16:37.958Z,8.61
2023-04-05T15:18:24.220Z,8.67
2023-04-05T15:20:11.499Z,8.58
2023-04-05T15:21:58.993Z,8.63
2023-04-05T15:23:46.772Z,8.64
2023-04-05T15:25:39.939Z,8.69
2023-04-05T15:27:27.014Z,8.65
2023-04-05T15:29:27.036Z,8.38
2023-04-05T15:31:13.904Z,8.49
2023-04-05T15:33:09.003Z,8.54
2023-04-05T15:35:02.286Z,8.55
2023-04-05T15:36:48.876Z,8.40
2023-04-05T15:38:44.064Z,8.28
2023-04-05T15:40:31.370Z,8.31
2023-04-05T15:42:16.973Z,8.16
2023-04-05T15:44:04.014Z,8.18
2023-04-05T15:45:58.088Z,8.26
2023-04-05T15:47:38.212Z,8.26
2023-04-05T15:49:24.837Z,8.25
2023-04-05T15:51:11.995Z,8.24
2023-04-05T15:52:52.275Z,8.18
2023-04-05T15:54:40.402Z,8.15
2023-04-05T15:56:27.246Z,8.13
2023-04-05T15:58:13.204Z,8.14
2023-04-05T15:59:54.440Z,8.13
2023-04-05T16:01:41.174Z,8.10
2023-04-05T16:03:21.281Z,8.16
2023-04-05T16:05:08.167Z,8.23
2023-04-05T16:06:55.036Z,8.31
2023-04-05T16:08:41.230Z,8.32
2023-04-05T16:10:29.254Z,8.27
2023-04-05T16:12:16.133Z,8.22
2023-04-05T16:13:56.969Z,8.23
2023-04-05T16:15:43.882Z,8.20
2023-04-05T16:17:32.135Z,8.19
2023-04-05T16:19:18.260Z,8.08
2023-04-05T16:21:11.943Z,8.09
2023-04-05T16:23:06.106Z,8.11
2023-04-05T16:24:45.815Z,8.15
2023-04-05T16:26:41.008Z,8.03
2023-04-05T16:28:34.004Z,8.04
2023-04-05T16:30:16.011Z,8.04
2023-04-05T16:32:09.079Z,7.99
2023-04-05T16:34:09.061Z,7.96
2023-04-05T16:35:56.228Z,7.90
2023-04-05T16:37:50.018Z,7.84
2023-04-05T16:39:50.274Z,7.76
2023-04-05T16:41:51.956Z,7.81
2023-04-05T16:43:44.987Z,7.77
2023-04-05T16:45:34.174Z,7.76
2023-04-05T16:47:27.060Z,7.71
2023-04-05T16:49:14.015Z,7.71
2023-04-05T16:51:01.013Z,7.63
2023-04-05T16:52:54.020Z,7.66
2023-04-05T16:54:53.998Z,7.54
2023-04-05T16:56:42.767Z,7.42
2023-04-05T16:58:36.034Z,7.46
2023-04-05T17:00:35.961Z,7.40
2023-04-05T17:02:29.254Z,7.31
2023-04-05T17:04:16.046Z,7.37
2023-04-05T17:06:11.204Z,7.39
2023-04-05T17:07:58.137Z,7.36
2023-04-05T17:09:51.044Z,7.40
2023-04-05T17:11:30.267Z,7.29
2023-04-05T17:13:25.070Z,7.31
2023-04-05T17:15:11.978Z,7.35
2023-04-05T17:16:58.913Z,7.32
2023-04-05T17:18:53.101Z,7.32
2023-04-05T17:20:46.074Z,7.19
2023-04-05T17:22:26.266Z,7.22
2023-04-05T17:24:20.302Z,7.18
2023-04-05T17:26:07.041Z,7.20
2023-04-05T17:28:00.088Z,7.16
2023-04-05T17:29:48.373Z,7.20
2023-04-05T17:31:41.119Z,7.16
2023-04-05T17:33:34.070Z,7.11
2023-04-05T17:35:34.005Z,7.08
2023-04-05T17:37:27.061Z,7.13
2023-04-05T17:39:21.036Z,7.13
2023-04-05T17:41:08.164Z,7.17
2023-04-05T17:43:01.064Z,7.21
2023-04-05T17:44:43.183Z,7.26
2023-04-05T17:46:42.799Z,7.27
2023-04-05T17:48:39.041Z,7.23
2023-04-05T17:50:19.614Z,7.16
2023-04-05T17:52:08.868Z,7.09
2023-04-05T17:53:56.053Z,7.09
2023-04-05T17:55:36.321Z,7.07
2023-04-05T17:57:23.346Z,7.09
2023-04-05T17:59:10.258Z,6.98
2023-04-05T18:00:51.280Z,6.92
2023-04-05T18:02:41.001Z,6.93
2023-04-05T18:04:28.126Z,6.91
2023-04-05T18:06:08.333Z,6.93
2023-04-05T18:07:55.183Z,6.91
2023-04-05T18:09:44.055Z,6.91
2023-04-05T18:11:30.377Z,6.85
2023-04-05T18:13:09.972Z,6.77
2023-04-05T18:14:57.133Z,6.81
2023-04-05T18:16:38.356Z,6.80
2023-04-05T18:18:32.069Z,6.81
2023-04-05T18:20:19.287Z,6.82
2023-04-05T18:22:12.094Z,6.80
2023-04-05T18:23:59.174Z,6.86
2023-04-05T18:25:59.117Z,6.78
2023-04-05T18:28:00.052Z,6.92
2023-04-05T18:29:55.415Z,7.00
2023-04-05T18:31:43.501Z,7.05
2023-04-05T18:33:36.175Z,7.00
2023-04-05T18:35:37.231Z,6.91
2023-04-05T18:37:24.034Z,6.91
2023-04-05T18:39:17.056Z,6.88
2023-04-05T18:41:19.059Z,6.62
2023-04-05T18:43:05.927Z,6.54
2023-04-05T18:44:59.142Z,6.50
2023-04-05T18:46:41.048Z,6.39
2023-04-05T18:48:27.402Z,6.34
2023-04-05T18:50:16.106Z,6.27
2023-04-05T18:52:18.254Z,6.17
2023-04-05T18:54:12.132Z,6.12
2023-04-05T18:56:01.109Z,6.11
2023-04-05T18:57:48.306Z,6.15
2023-04-05T18:59:41.181Z,6.23
2023-04-05T19:01:20.965Z,6.20
2023-04-05T19:03:09.979Z,6.27
2023-04-05T19:04:58.091Z,6.30
2023-04-05T19:06:38.152Z,6.33
2023-04-05T19:08:33.340Z,6.31
2023-04-05T19:10:26.169Z,6.36
2023-04-05T19:12:13.370Z,6.43
2023-04-05T19:14:08.382Z,6.40
2023-04-05T19:15:55.155Z,6.50
2023-04-05T19:17:41.957Z,6.45
2023-04-05T19:19:37.128Z,6.50
2023-04-05T19:21:31.154Z,6.55
2023-04-05T19:23:11.337Z,6.50
2023-04-05T19:25:05.116Z,6.47
2023-04-05T19:26:52.393Z,6.47
2023-04-05T19:28:32.101Z,6.49
2023-04-05T19:30:19.468Z,6.49
2023-04-05T19:32:05.408Z,6.36
2023-04-05T19:33:51.100Z,6.40
2023-04-05T19:35:46.417Z,6.43
2023-04-05T19:37:46.111Z,6.41
2023-04-05T19:39:34.796Z,6.46
2023-04-05T19:41:27.181Z,6.48
2023-04-05T19:43:07.027Z,6.47
2023-04-05T19:45:04.151Z,6.48
2023-04-05T19:46:58.166Z,6.42
2023-04-05T19:48:46.479Z,6.29
2023-04-05T19:50:58.974Z,6.31
2023-04-05T19:52:51.504Z,6.33
2023-04-05T19:54:38.543Z,6.36
2023-04-05T19:56:27.202Z,6.32
2023-04-05T19:58:08.686Z,6.28
2023-04-05T19:59:55.076Z,6.29
2023-04-05T20:01:54.219Z,6.34
2023-04-05T20:03:42.585Z,6.39
2023-04-05T20:06:08.125Z,6.38
2023-04-05T20:08:01.257Z,6.45
2023-04-05T20:09:41.153Z,6.49
2023-04-05T20:11:36.187Z,6.46
2023-04-05T20:13:23.167Z,6.44
2023-04-05T20:15:18.782Z,6.40
2023-04-05T20:17:13.153Z,6.35
2023-04-05T20:19:06.425Z,6.20
2023-04-05T20:20:47.727Z,6.21
2023-04-05T20:22:42.136Z,6.13
2023-04-05T20:24:42.097Z,6.09
2023-04-05T20:26:37.445Z,6.02
2023-04-05T20:28:43.675Z,6.02
2023-04-05T20:30:38.129Z,6.03
2023-04-05T20:32:25.421Z,6.07
2023-04-05T20:34:26.150Z,6.06
2023-04-05T20:36:20.787Z,6.02
2023-04-05T20:38:08.219Z,6.00
2023-04-05T20:39:48.100Z,6.03
2023-04-05T20:41:41.198Z,6.06
2023-04-05T20:43:34.399Z,6.12
2023-04-05T20:45:22.371Z,6.15
2023-04-05T20:47:15.287Z,6.11
2023-04-05T20:49:01.549Z,6.13
2023-04-05T20:50:54.129Z,5.94
2023-04-05T20:52:40.215Z,5.92
2023-04-05T20:54:28.926Z,5.96
2023-04-05T20:56:16.855Z,6.01
2023-04-05T20:58:03.149Z,6.07
2023-04-05T20:59:43.213Z,6.10
2023-04-05T21:01:36.221Z,5.93
2023-04-05T21:03:22.288Z,5.99
2023-04-05T21:05:08.518Z,6.04
2023-04-05T21:07:01.172Z,6.07
2023-04-05T21:08:40.466Z,6.09
2023-04-05T21:10:29.190Z,5.99
2023-04-05T21:12:18.249Z,5.92
2023-04-05T21:14:04.457Z,5.89
2023-04-05T21:15:44.312Z,5.92
2023-04-05T21:17:31.206Z,5.94
2023-04-05T21:19:10.684Z,5.94
2023-04-05T21:20:58.565Z,5.89
2023-04-05T21:22:45.198Z,5.92
2023-04-05T21:24:24.419Z,5.95
2023-04-05T21:26:12.599Z,5.90
2023-04-05T21:27:58.241Z,5.83
2023-04-05T21:29:38.443Z,5.82
2023-04-05T21:31:25.526Z,5.73
2023-04-05T21:33:12.302Z,5.77
2023-04-05T21:34:52.460Z,5.79
2023-04-05T21:36:39.560Z,5.85
2023-04-05T21:38:26.257Z,5.86
2023-04-05T21:40:06.487Z,5.80
2023-04-05T21:41:54.698Z,5.80
2023-04-05T21:43:41.217Z,5.78
2023-04-05T21:45:27.502Z,5.78
2023-04-05T21:47:07.371Z,5.86
2023-04-05T21:48:54.204Z,5.85
2023-04-05T21:50:34.630Z,5.81
2023-04-05T21:52:21.448Z,5.75
2023-04-05T21:54:08.238Z,5.73
2023-04-05T21:55:47.539Z,5.73
2023-04-05T21:57:35.637Z,5.77
2023-04-05T21:59:22.308Z,5.74
2023-04-05T22:01:02.547Z,5.76
2023-04-05T22:02:49.319Z,5.71
2023-04-05T22:04:36.285Z,5.80
2023-04-05T22:06:16.517Z,5.78
2023-04-05T22:08:11.421Z,5.78
2023-04-05T22:09:57.495Z,5.75
2023-04-05T22:11:51.227Z,5.65
2023-04-05T22:13:39.452Z,5.66
2023-04-05T22:15:26.089Z,5.76
2023-04-05T22:17:19.189Z,5.72
2023-04-05T22:19:06.420Z,5.77
2023-04-05T22:20:52.488Z,5.81
2023-04-05T22:22:45.242Z,5.79
2023-04-05T22:24:32.510Z,5.74
2023-04-05T22:26:19.126Z,5.75
2023-04-05T22:28:12.225Z,5.75
2023-04-05T22:30:08.582Z,5.81
2023-04-05T22:31:47.487Z,5.80
2023-04-05T22:33:40.238Z,5.81
2023-04-05T22:35:40.348Z,5.77
2023-04-05T22:37:27.204Z,5.76
2023-04-05T22:39:20.273Z,5.77
2023-04-05T22:41:07.189Z,5.73
2023-04-05T22:43:00.240Z,5.77
2023-04-05T22:44:47.278Z,5.75
2023-04-05T22:46:42.641Z,5.79
2023-04-05T22:48:29.240Z,5.78
2023-04-05T22:50:17.334Z,5.81
2023-04-05T22:52:04.749Z,5.81
2023-04-05T22:53:57.291Z,5.75
2023-04-05T22:55:39.917Z,5.76
2023-04-05T22:57:26.660Z,5.73
2023-04-05T22:59:13.275Z,5.76
2023-04-05T23:00:53.681Z,5.76
2023-04-05T23:02:41.977Z,5.74
2023-04-05T23:04:29.367Z,5.78
2023-04-05T23:06:09.474Z,5.71
2023-04-05T23:07:56.611Z,5.63
2023-04-05T23:09:43.317Z,5.65
2023-04-05T23:11:23.539Z,5.65
2023-04-05T23:13:10.878Z,5.64
2023-04-05T23:14:57.321Z,5.67
2023-04-05T23:16:37.509Z,5.67
2023-04-05T23:18:24.721Z,5.62
2023-04-05T23:20:12.258Z,5.67
2023-04-05T23:21:52.635Z,5.69
2023-04-05T23:23:39.582Z,5.74
2023-04-05T23:25:26.356Z,5.72
2023-04-05T23:27:12.528Z,5.68
2023-04-05T23:28:59.460Z,5.63
2023-04-05T23:30:46.301Z,5.70
2023-04-05T23:32:26.604Z,5.73
2023-04-05T23:34:21.445Z,5.77
2023-04-05T23:36:14.405Z,5.81
2023-04-05T23:37:54.386Z,5.84
2023-04-05T23:39:47.501Z,5.90
2023-04-05T23:41:47.395Z,5.86
2023-04-05T23:43:47.263Z,5.86
2023-04-05T23:45:40.407Z,5.75
2023-04-05T23:47:26.643Z,5.72
2023-04-05T23:49:21.285Z,5.74
2023-04-05T23:51:07.515Z,5.78
2023-04-05T23:52:54.154Z,5.81
2023-04-05T23:54:47.326Z,5.82
2023-04-05T23:56:33.496Z,5.85
2023-04-05T23:58:19.535Z,5.89
